sensor_id;sensor_type;location;lat;lon;timestamp;temperature;humidity
37408;DHT22;24866;50.248;8.252;2022-12-24T00:00:04;10.50;99.90
37408;DHT22;24866;50.248;8.252;2022-12-24T00:02:35;10.50;99.90
37408;DHT22;24866;50.248;8.252;2022-12-24T00:05:05;10.40;99.90
37408;DHT22;24866;50.248;8.252;2022-12-24T00:07:35;10.40;99.90
37408;DHT22;24866;50.248;8.252;2022-12-24T00:10:07;10.30;99.90
37408;DHT22;24866;50.248;8.252;2022-12-24T00:12:37;10.40;99.90
37408;DHT22;24866;50.248;8.252;2022-12-24T00:15:08;10.50;99.90
37408;DHT22;24866;50.248;8.252;2022-12-24T00:17:39;10.50;99.90
37408;DHT22;24866;50.248;8.252;2022-12-24T00:20:09;10.40;99.90
37408;DHT22;24866;50.248;8.252;2022-12-24T00:22:39;10.30;99.90
37408;DHT22;24866;50.248;8.252;2022-12-24T00:25:09;10.30;99.90
37408;DHT22;24866;50.248;8.252;2022-12-24T00:27:39;10.30;99.90
37408;DHT22;24866;50.248;8.252;2022-12-24T00:30:09;10.30;99.90
37408;DHT22;24866;50.248;8.252;2022-12-24T00:32:41;10.30;99.90
37408;DHT22;24866;50.248;8.252;2022-12-24T00:35:10;10.40;99.90
37408;DHT22;24866;50.248;8.252;2022-12-24T00:37:40;10.30;99.90
37408;DHT22;24866;50.248;8.252;2022-12-24T00:40:10;10.20;99.90
37408;DHT22;24866;50.248;8.252;2022-12-24T00:42:40;10.20;99.90
37408;DHT22;24866;50.248;8.252;2022-12-24T00:45:11;10.20;99.90
37408;DHT22;24866;50.248;8.252;2022-12-24T00:47:42;10.20;99.90
37408;DHT22;24866;50.248;8.252;2022-12-24T00:50:12;10.30;99.90
37408;DHT22;24866;50.248;8.252;2022-12-24T00:52:42;10.20;99.90
37408;DHT22;24866;50.248;8.252;2022-12-24T00:55:12;10.10;99.90
37408;DHT22;24866;50.248;8.252;2022-12-24T00:57:42;10.20;99.90
37408;DHT22;24866;50.248;8.252;2022-12-24T01:00:12;10.20;99.90
37408;DHT22;24866;50.248;8.252;2022-12-24T01:02:44;10.20;99.90
37408;DHT22;24866;50.248;8.252;2022-12-24T01:05:14;10.10;99.90
37408;DHT22;24866;50.248;8.252;2022-12-24T01:07:48;10.20;99.90
37408;DHT22;24866;50.248;8.252;2022-12-24T01:10:18;10.20;99.90
37408;DHT22;24866;50.248;8.252;2022-12-24T01:12:48;10.30;99.90
37408;DHT22;24866;50.248;8.252;2022-12-24T01:15:18;10.20;99.90
37408;DHT22;24866;50.248;8.252;2022-12-24T01:17:50;10.00;99.90
37408;DHT22;24866;50.248;8.252;2022-12-24T01:20:20;10.10;99.90
37408;DHT22;24866;50.248;8.252;2022-12-24T01:22:50;10.10;99.90
37408;DHT22;24866;50.248;8.252;2022-12-24T01:25:20;10.10;99.90
37408;DHT22;24866;50.248;8.252;2022-12-24T01:27:50;10.00;99.90
37408;DHT22;24866;50.248;8.252;2022-12-24T01:30:20;10.10;99.90
37408;DHT22;24866;50.248;8.252;2022-12-24T01:32:51;10.00;99.90
37408;DHT22;24866;50.248;8.252;2022-12-24T01:35:21;10.20;99.90
37408;DHT22;24866;50.248;8.252;2022-12-24T01:37:51;10.10;99.90
37408;DHT22;24866;50.248;8.252;2022-12-24T01:40:21;10.00;99.90
37408;DHT22;24866;50.248;8.252;2022-12-24T01:43:15;10.00;99.90
37408;DHT22;24866;50.248;8.252;2022-12-24T01:45:57;10.00;99.90
37408;DHT22;24866;50.248;8.252;2022-12-24T01:48:35;10.00;99.90
37408;DHT22;24866;50.248;8.252;2022-12-24T01:51:14;10.10;99.90
37408;DHT22;24866;50.248;8.252;2022-12-24T01:53:49;10.10;99.90
37408;DHT22;24866;50.248;8.252;2022-12-24T01:56:20;10.00;99.90
37408;DHT22;24866;50.248;8.252;2022-12-24T01:58:55;10.00;99.90
37408;DHT22;24866;50.248;8.252;2022-12-24T02:01:26;10.10;99.90
37408;DHT22;24866;50.248;8.252;2022-12-24T02:03:58;10.00;99.90
37408;DHT22;24866;50.248;8.252;2022-12-24T02:06:28;10.00;99.90
37408;DHT22;24866;50.248;8.252;2022-12-24T02:08:58;9.90;99.90
37408;DHT22;24866;50.248;8.252;2022-12-24T02:11:29;9.80;99.90
37408;DHT22;24866;50.248;8.252;2022-12-24T02:14:00;9.90;99.90
37408;DHT22;24866;50.248;8.252;2022-12-24T02:16:42;10.00;99.90
37408;DHT22;24866;50.248;8.252;2022-12-24T02:19:41;9.90;99.90
37408;DHT22;24866;50.248;8.252;2022-12-24T02:22:17;9.90;99.90
37408;DHT22;24866;50.248;8.252;2022-12-24T02:25:22;10.00;99.90
37408;DHT22;24866;50.248;8.252;2022-12-24T02:27:56;9.90;99.90
37408;DHT22;24866;50.248;8.252;2022-12-24T02:30:31;9.90;99.90
37408;DHT22;24866;50.248;8.252;2022-12-24T02:33:19;9.90;99.90
37408;DHT22;24866;50.248;8.252;2022-12-24T02:35:56;9.90;99.90
37408;DHT22;24866;50.248;8.252;2022-12-24T02:38:30;9.90;99.90
37408;DHT22;24866;50.248;8.252;2022-12-24T02:41:04;9.90;99.90
37408;DHT22;24866;50.248;8.252;2022-12-24T02:43:38;9.90;99.90
37408;DHT22;24866;50.248;8.252;2022-12-24T02:46:15;9.90;99.90
37408;DHT22;24866;50.248;8.252;2022-12-24T02:48:47;9.80;99.90
37408;DHT22;24866;50.248;8.252;2022-12-24T02:51:21;9.90;99.90
37408;DHT22;24866;50.248;8.252;2022-12-24T02:53:51;10.00;99.90
37408;DHT22;24866;50.248;8.252;2022-12-24T02:56:35;10.00;99.90
37408;DHT22;24866;50.248;8.252;2022-12-24T02:59:32;9.90;99.90
37408;DHT22;24866;50.248;8.252;2022-12-24T03:02:12;9.80;99.90
37408;DHT22;24866;50.248;8.252;2022-12-24T03:04:56;9.90;99.90
37408;DHT22;24866;50.248;8.252;2022-12-24T03:07:32;9.90;99.90
37408;DHT22;24866;50.248;8.252;2022-12-24T03:10:14;10.00;99.90
37408;DHT22;24866;50.248;8.252;2022-12-24T03:12:49;9.90;99.90
37408;DHT22;24866;50.248;8.252;2022-12-24T03:15:23;9.90;99.90
37408;DHT22;24866;50.248;8.252;2022-12-24T03:17:57;9.80;99.90
37408;DHT22;24866;50.248;8.252;2022-12-24T03:20:32;9.80;99.90
37408;DHT22;24866;50.248;8.252;2022-12-24T03:23:04;9.90;99.90
37408;DHT22;24866;50.248;8.252;2022-12-24T03:25:37;10.00;99.90
37408;DHT22;24866;50.248;8.252;2022-12-24T03:28:08;9.90;99.90
37408;DHT22;24866;50.248;8.252;2022-12-24T03:30:40;9.90;99.90
37408;DHT22;24866;50.248;8.252;2022-12-24T03:33:12;9.80;99.90
37408;DHT22;24866;50.248;8.252;2022-12-24T03:35:42;9.90;99.90
37408;DHT22;24866;50.248;8.252;2022-12-24T03:38:12;9.90;99.90
37408;DHT22;24866;50.248;8.252;2022-12-24T03:40:42;10.00;99.90
37408;DHT22;24866;50.248;8.252;2022-12-24T03:43:12;10.00;99.90
37408;DHT22;24866;50.248;8.252;2022-12-24T03:45:42;9.90;99.90
37408;DHT22;24866;50.248;8.252;2022-12-24T03:48:13;10.00;99.90
37408;DHT22;24866;50.248;8.252;2022-12-24T03:50:43;9.90;99.90
37408;DHT22;24866;50.248;8.252;2022-12-24T03:53:13;9.90;99.90
37408;DHT22;24866;50.248;8.252;2022-12-24T03:55:43;9.90;99.90
37408;DHT22;24866;50.248;8.252;2022-12-24T03:58:13;9.90;99.90
37408;DHT22;24866;50.248;8.252;2022-12-24T04:00:43;9.80;99.90
37408;DHT22;24866;50.248;8.252;2022-12-24T04:03:15;9.90;99.90
37408;DHT22;24866;50.248;8.252;2022-12-24T04:05:45;9.80;99.90
37408;DHT22;24866;50.248;8.252;2022-12-24T04:08:15;9.70;99.90
37408;DHT22;24866;50.248;8.252;2022-12-24T04:10:45;9.90;99.90
37408;DHT22;24866;50.248;8.252;2022-12-24T04:13:15;9.80;99.90
37408;DHT22;24866;50.248;8.252;2022-12-24T04:15:45;9.90;99.90
37408;DHT22;24866;50.248;8.252;2022-12-24T04:18:16;9.90;99.90
37408;DHT22;24866;50.248;8.252;2022-12-24T04:20:46;9.90;99.90
37408;DHT22;24866;50.248;8.252;2022-12-24T04:23:16;9.90;99.90
37408;DHT22;24866;50.248;8.252;2022-12-24T04:25:46;9.90;99.90
37408;DHT22;24866;50.248;8.252;2022-12-24T04:28:16;9.90;99.90
37408;DHT22;24866;50.248;8.252;2022-12-24T04:30:46;9.90;99.90
37408;DHT22;24866;50.248;8.252;2022-12-24T04:33:17;9.90;99.90
37408;DHT22;24866;50.248;8.252;2022-12-24T04:35:47;9.90;99.90
37408;DHT22;24866;50.248;8.252;2022-12-24T04:38:17;9.90;99.90
37408;DHT22;24866;50.248;8.252;2022-12-24T04:40:47;9.90;99.90
37408;DHT22;24866;50.248;8.252;2022-12-24T04:43:17;9.90;99.90
37408;DHT22;24866;50.248;8.252;2022-12-24T04:45:47;9.90;99.90
37408;DHT22;24866;50.248;8.252;2022-12-24T04:48:18;10.00;99.90
37408;DHT22;24866;50.248;8.252;2022-12-24T04:50:48;10.00;99.90
37408;DHT22;24866;50.248;8.252;2022-12-24T04:53:18;10.00;99.90
37408;DHT22;24866;50.248;8.252;2022-12-24T04:55:47;10.00;99.90
37408;DHT22;24866;50.248;8.252;2022-12-24T04:58:17;10.00;99.90
37408;DHT22;24866;50.248;8.252;2022-12-24T05:00:47;10.00;99.90
37408;DHT22;24866;50.248;8.252;2022-12-24T05:03:19;9.90;99.90
37408;DHT22;24866;50.248;8.252;2022-12-24T05:05:49;9.80;99.90
37408;DHT22;24866;50.248;8.252;2022-12-24T05:08:19;9.80;99.90
37408;DHT22;24866;50.248;8.252;2022-12-24T05:10:54;9.70;99.90
37408;DHT22;24866;50.248;8.252;2022-12-24T05:13:24;9.70;99.90
37408;DHT22;24866;50.248;8.252;2022-12-24T05:15:55;9.70;99.90
37408;DHT22;24866;50.248;8.252;2022-12-24T05:18:26;9.70;99.90
37408;DHT22;24866;50.248;8.252;2022-12-24T05:20:56;9.60;99.90
37408;DHT22;24866;50.248;8.252;2022-12-24T05:23:26;9.60;99.90
37408;DHT22;24866;50.248;8.252;2022-12-24T05:26:17;9.50;99.90
37408;DHT22;24866;50.248;8.252;2022-12-24T05:28:53;9.50;99.90
37408;DHT22;24866;50.248;8.252;2022-12-24T05:31:25;9.60;99.90
37408;DHT22;24866;50.248;8.252;2022-12-24T05:33:57;9.60;99.90
37408;DHT22;24866;50.248;8.252;2022-12-24T05:36:27;9.60;99.90
37408;DHT22;24866;50.248;8.252;2022-12-24T05:38:57;9.70;99.90
37408;DHT22;24866;50.248;8.252;2022-12-24T05:41:27;9.70;99.90
37408;DHT22;24866;50.248;8.252;2022-12-24T05:43:57;9.80;99.90
37408;DHT22;24866;50.248;8.252;2022-12-24T05:46:27;9.80;99.90
37408;DHT22;24866;50.248;8.252;2022-12-24T05:48:58;9.80;99.90
37408;DHT22;24866;50.248;8.252;2022-12-24T05:51:28;9.80;99.90
37408;DHT22;24866;50.248;8.252;2022-12-24T05:53:58;9.80;99.90
37408;DHT22;24866;50.248;8.252;2022-12-24T05:56:28;9.80;99.90
37408;DHT22;24866;50.248;8.252;2022-12-24T05:58:58;9.70;99.90
37408;DHT22;24866;50.248;8.252;2022-12-24T06:01:28;9.80;99.90
37408;DHT22;24866;50.248;8.252;2022-12-24T06:04:00;9.80;99.90
37408;DHT22;24866;50.248;8.252;2022-12-24T06:06:31;9.80;99.90
37408;DHT22;24866;50.248;8.252;2022-12-24T06:09:01;9.90;99.90
37408;DHT22;24866;50.248;8.252;2022-12-24T06:11:31;9.90;99.90
37408;DHT22;24866;50.248;8.252;2022-12-24T06:14:00;9.80;99.90
37408;DHT22;24866;50.248;8.252;2022-12-24T06:16:30;9.70;99.90
37408;DHT22;24866;50.248;8.252;2022-12-24T06:19:02;9.60;99.90
37408;DHT22;24866;50.248;8.252;2022-12-24T06:21:31;9.50;99.90
37408;DHT22;24866;50.248;8.252;2022-12-24T06:24:02;9.40;99.90
37408;DHT22;24866;50.248;8.252;2022-12-24T06:26:32;9.30;99.90
37408;DHT22;24866;50.248;8.252;2022-12-24T06:29:02;9.30;99.90
37408;DHT22;24866;50.248;8.252;2022-12-24T06:31:32;9.40;99.90
37408;DHT22;24866;50.248;8.252;2022-12-24T06:34:03;9.30;99.90
37408;DHT22;24866;50.248;8.252;2022-12-24T06:36:34;9.20;99.90
37408;DHT22;24866;50.248;8.252;2022-12-24T06:39:04;9.30;99.90
37408;DHT22;24866;50.248;8.252;2022-12-24T06:41:34;9.30;99.90
37408;DHT22;24866;50.248;8.252;2022-12-24T06:44:04;9.30;99.90
37408;DHT22;24866;50.248;8.252;2022-12-24T06:46:34;9.40;99.90
37408;DHT22;24866;50.248;8.252;2022-12-24T06:49:05;9.40;99.90
37408;DHT22;24866;50.248;8.252;2022-12-24T06:51:35;9.30;99.90
37408;DHT22;24866;50.248;8.252;2022-12-24T06:54:05;9.40;99.90
37408;DHT22;24866;50.248;8.252;2022-12-24T06:56:35;9.20;99.90
37408;DHT22;24866;50.248;8.252;2022-12-24T06:59:05;9.30;99.90
37408;DHT22;24866;50.248;8.252;2022-12-24T07:01:35;9.30;99.90
37408;DHT22;24866;50.248;8.252;2022-12-24T07:04:07;9.30;99.90
37408;DHT22;24866;50.248;8.252;2022-12-24T07:06:36;9.40;99.90
37408;DHT22;24866;50.248;8.252;2022-12-24T07:09:07;9.40;99.90
37408;DHT22;24866;50.248;8.252;2022-12-24T07:11:39;9.50;99.90
37408;DHT22;24866;50.248;8.252;2022-12-24T07:14:09;9.50;99.90
37408;DHT22;24866;50.248;8.252;2022-12-24T07:16:39;9.50;99.90
37408;DHT22;24866;50.248;8.252;2022-12-24T07:19:10;9.50;99.90
37408;DHT22;24866;50.248;8.252;2022-12-24T07:21:40;9.60;99.90
37408;DHT22;24866;50.248;8.252;2022-12-24T07:24:10;9.60;99.90
37408;DHT22;24866;50.248;8.252;2022-12-24T07:26:40;9.60;99.90
37408;DHT22;24866;50.248;8.252;2022-12-24T07:29:10;9.70;99.90
37408;DHT22;24866;50.248;8.252;2022-12-24T07:31:40;9.70;99.90
37408;DHT22;24866;50.248;8.252;2022-12-24T07:34:11;9.70;99.90
37408;DHT22;24866;50.248;8.252;2022-12-24T07:36:41;9.70;99.90
37408;DHT22;24866;50.248;8.252;2022-12-24T07:39:11;9.70;99.90
37408;DHT22;24866;50.248;8.252;2022-12-24T07:41:41;9.70;99.90
37408;DHT22;24866;50.248;8.252;2022-12-24T07:44:11;9.70;99.90
37408;DHT22;24866;50.248;8.252;2022-12-24T07:46:42;9.70;99.90
37408;DHT22;24866;50.248;8.252;2022-12-24T07:49:13;9.80;99.90
37408;DHT22;24866;50.248;8.252;2022-12-24T07:51:43;9.70;99.90
37408;DHT22;24866;50.248;8.252;2022-12-24T07:54:13;9.70;99.90
37408;DHT22;24866;50.248;8.252;2022-12-24T07:56:43;9.80;99.90
37408;DHT22;24866;50.248;8.252;2022-12-24T07:59:13;9.70;99.90
37408;DHT22;24866;50.248;8.252;2022-12-24T08:01:43;9.80;99.90
37408;DHT22;24866;50.248;8.252;2022-12-24T08:04:15;9.80;99.90
37408;DHT22;24866;50.248;8.252;2022-12-24T08:06:44;9.80;99.90
37408;DHT22;24866;50.248;8.252;2022-12-24T08:09:14;9.80;99.90
37408;DHT22;24866;50.248;8.252;2022-12-24T08:11:44;9.90;99.90
37408;DHT22;24866;50.248;8.252;2022-12-24T08:14:14;9.90;99.90
37408;DHT22;24866;50.248;8.252;2022-12-24T08:16:44;9.90;99.90
37408;DHT22;24866;50.248;8.252;2022-12-24T08:19:15;9.90;99.90
37408;DHT22;24866;50.248;8.252;2022-12-24T08:21:45;9.90;99.90
37408;DHT22;24866;50.248;8.252;2022-12-24T08:24:15;9.90;99.90
37408;DHT22;24866;50.248;8.252;2022-12-24T08:26:45;9.90;99.90
37408;DHT22;24866;50.248;8.252;2022-12-24T08:29:15;9.90;99.90
37408;DHT22;24866;50.248;8.252;2022-12-24T08:31:45;9.90;99.90
37408;DHT22;24866;50.248;8.252;2022-12-24T08:34:16;9.90;99.90
37408;DHT22;24866;50.248;8.252;2022-12-24T08:36:46;9.90;99.90
37408;DHT22;24866;50.248;8.252;2022-12-24T08:39:16;9.80;99.90
37408;DHT22;24866;50.248;8.252;2022-12-24T08:41:46;9.70;99.90
37408;DHT22;24866;50.248;8.252;2022-12-24T08:44:16;9.60;99.90
37408;DHT22;24866;50.248;8.252;2022-12-24T08:46:46;9.50;99.90
37408;DHT22;24866;50.248;8.252;2022-12-24T08:49:18;9.50;99.90
37408;DHT22;24866;50.248;8.252;2022-12-24T08:51:48;9.50;99.90
37408;DHT22;24866;50.248;8.252;2022-12-24T08:54:19;9.40;99.90
37408;DHT22;24866;50.248;8.252;2022-12-24T08:56:50;9.40;99.90
37408;DHT22;24866;50.248;8.252;2022-12-24T08:59:20;9.40;99.90
37408;DHT22;24866;50.248;8.252;2022-12-24T09:01:50;9.40;99.90
37408;DHT22;24866;50.248;8.252;2022-12-24T09:04:21;9.40;99.90
37408;DHT22;24866;50.248;8.252;2022-12-24T09:06:51;9.30;99.90
37408;DHT22;24866;50.248;8.252;2022-12-24T09:09:21;9.40;99.90
37408;DHT22;24866;50.248;8.252;2022-12-24T09:11:51;9.40;99.90
37408;DHT22;24866;50.248;8.252;2022-12-24T09:14:21;9.40;99.90
37408;DHT22;24866;50.248;8.252;2022-12-24T09:16:51;9.40;99.90
37408;DHT22;24866;50.248;8.252;2022-12-24T09:19:22;9.50;99.90
37408;DHT22;24866;50.248;8.252;2022-12-24T09:21:52;9.60;99.90
37408;DHT22;24866;50.248;8.252;2022-12-24T09:24:22;9.70;99.90
37408;DHT22;24866;50.248;8.252;2022-12-24T09:26:52;9.80;99.90
37408;DHT22;24866;50.248;8.252;2022-12-24T09:29:22;10.00;99.90
37408;DHT22;24866;50.248;8.252;2022-12-24T09:31:52;10.20;99.90
37408;DHT22;24866;50.248;8.252;2022-12-24T09:34:24;10.10;99.90
37408;DHT22;24866;50.248;8.252;2022-12-24T09:36:54;10.10;99.90
37408;DHT22;24866;50.248;8.252;2022-12-24T09:39:24;10.10;99.90
37408;DHT22;24866;50.248;8.252;2022-12-24T09:41:59;10.10;99.90
37408;DHT22;24866;50.248;8.252;2022-12-24T09:44:39;10.10;99.90
37408;DHT22;24866;50.248;8.252;2022-12-24T09:47:21;10.20;99.90
37408;DHT22;24866;50.248;8.252;2022-12-24T09:49:54;10.50;99.90
37408;DHT22;24866;50.248;8.252;2022-12-24T09:52:28;10.60;99.90
37408;DHT22;24866;50.248;8.252;2022-12-24T09:55:06;10.70;99.90
37408;DHT22;24866;50.248;8.252;2022-12-24T09:57:39;10.70;99.90
37408;DHT22;24866;50.248;8.252;2022-12-24T10:00:18;10.60;99.90
37408;DHT22;24866;50.248;8.252;2022-12-24T10:02:49;10.80;99.90
37408;DHT22;24866;50.248;8.252;2022-12-24T10:05:28;10.70;99.90
37408;DHT22;24866;50.248;8.252;2022-12-24T10:08:06;10.70;99.90
37408;DHT22;24866;50.248;8.252;2022-12-24T10:10:50;10.60;99.90
37408;DHT22;24866;50.248;8.252;2022-12-24T10:13:27;10.60;99.90
37408;DHT22;24866;50.248;8.252;2022-12-24T10:16:02;10.60;99.90
37408;DHT22;24866;50.248;8.252;2022-12-24T10:18:41;10.60;99.90
37408;DHT22;24866;50.248;8.252;2022-12-24T10:21:17;10.60;99.90
37408;DHT22;24866;50.248;8.252;2022-12-24T10:23:59;10.60;99.90
37408;DHT22;24866;50.248;8.252;2022-12-24T10:26:33;10.60;99.90
37408;DHT22;24866;50.248;8.252;2022-12-24T10:29:10;10.60;99.90
37408;DHT22;24866;50.248;8.252;2022-12-24T10:31:55;10.60;99.90
37408;DHT22;24866;50.248;8.252;2022-12-24T10:34:32;10.50;99.90
37408;DHT22;24866;50.248;8.252;2022-12-24T10:37:04;10.50;99.90
37408;DHT22;24866;50.248;8.252;2022-12-24T10:39:35;10.50;99.90
37408;DHT22;24866;50.248;8.252;2022-12-24T10:42:06;10.50;99.90
37408;DHT22;24866;50.248;8.252;2022-12-24T10:44:36;10.60;99.90
37408;DHT22;24866;50.248;8.252;2022-12-24T10:47:07;10.70;99.90
37408;DHT22;24866;50.248;8.252;2022-12-24T10:49:43;10.70;99.90
37408;DHT22;24866;50.248;8.252;2022-12-24T10:52:19;10.60;99.90
37408;DHT22;24866;50.248;8.252;2022-12-24T10:55:07;10.60;99.90
37408;DHT22;24866;50.248;8.252;2022-12-24T10:57:39;10.60;99.90
37408;DHT22;24866;50.248;8.252;2022-12-24T11:00:18;10.60;99.90
37408;DHT22;24866;50.248;8.252;2022-12-24T11:03:05;10.60;99.90
37408;DHT22;24866;50.248;8.252;2022-12-24T11:05:37;10.60;99.90
37408;DHT22;24866;50.248;8.252;2022-12-24T11:08:15;10.70;99.90
37408;DHT22;24866;50.248;8.252;2022-12-24T11:10:54;10.90;99.90
37408;DHT22;24866;50.248;8.252;2022-12-24T11:13:26;11.00;99.90
37408;DHT22;24866;50.248;8.252;2022-12-24T11:16:02;11.10;99.90
37408;DHT22;24866;50.248;8.252;2022-12-24T11:18:35;11.10;99.90
37408;DHT22;24866;50.248;8.252;2022-12-24T11:21:07;11.00;99.90
37408;DHT22;24866;50.248;8.252;2022-12-24T11:23:38;11.00;99.90
37408;DHT22;24866;50.248;8.252;2022-12-24T11:26:09;11.00;99.90
37408;DHT22;24866;50.248;8.252;2022-12-24T11:28:39;11.10;99.90
37408;DHT22;24866;50.248;8.252;2022-12-24T11:31:19;11.00;99.90
37408;DHT22;24866;50.248;8.252;2022-12-24T11:33:50;11.00;99.90
37408;DHT22;24866;50.248;8.252;2022-12-24T11:36:22;11.00;99.90
37408;DHT22;24866;50.248;8.252;2022-12-24T11:38:57;11.00;99.90
37408;DHT22;24866;50.248;8.252;2022-12-24T11:41:35;11.10;99.90
37408;DHT22;24866;50.248;8.252;2022-12-24T11:44:07;11.20;99.90
37408;DHT22;24866;50.248;8.252;2022-12-24T11:46:40;11.30;99.90
37408;DHT22;24866;50.248;8.252;2022-12-24T11:49:22;11.30;99.90
37408;DHT22;24866;50.248;8.252;2022-12-24T11:52:12;11.30;99.90
37408;DHT22;24866;50.248;8.252;2022-12-24T11:54:59;11.40;99.90
37408;DHT22;24866;50.248;8.252;2022-12-24T11:57:39;11.50;99.90
37408;DHT22;24866;50.248;8.252;2022-12-24T12:00:12;11.30;99.90
37408;DHT22;24866;50.248;8.252;2022-12-24T12:02:43;11.40;99.90
37408;DHT22;24866;50.248;8.252;2022-12-24T12:05:17;11.50;99.90
37408;DHT22;24866;50.248;8.252;2022-12-24T12:07:51;11.40;99.90
37408;DHT22;24866;50.248;8.252;2022-12-24T12:10:26;11.40;99.90
37408;DHT22;24866;50.248;8.252;2022-12-24T12:12:59;11.20;99.90
37408;DHT22;24866;50.248;8.252;2022-12-24T12:15:33;11.30;99.90
37408;DHT22;24866;50.248;8.252;2022-12-24T12:18:07;11.30;99.90
37408;DHT22;24866;50.248;8.252;2022-12-24T12:20:42;11.30;99.90
37408;DHT22;24866;50.248;8.252;2022-12-24T12:23:16;11.30;99.90
37408;DHT22;24866;50.248;8.252;2022-12-24T12:25:53;11.30;99.90
37408;DHT22;24866;50.248;8.252;2022-12-24T12:28:30;11.20;99.90
37408;DHT22;24866;50.248;8.252;2022-12-24T12:31:03;11.40;99.90
37408;DHT22;24866;50.248;8.252;2022-12-24T12:33:38;11.40;99.90
37408;DHT22;24866;50.248;8.252;2022-12-24T12:36:10;11.40;99.90
37408;DHT22;24866;50.248;8.252;2022-12-24T12:38:41;11.40;99.90
37408;DHT22;24866;50.248;8.252;2022-12-24T12:41:34;11.40;99.90
37408;DHT22;24866;50.248;8.252;2022-12-24T12:50:39;11.70;99.90
37408;DHT22;24866;50.248;8.252;2022-12-24T12:53:23;11.80;99.90
37408;DHT22;24866;50.248;8.252;2022-12-24T12:56:00;11.90;99.90
37408;DHT22;24866;50.248;8.252;2022-12-24T12:58:38;12.00;99.90
37408;DHT22;24866;50.248;8.252;2022-12-24T13:01:15;11.80;99.90
37408;DHT22;24866;50.248;8.252;2022-12-24T13:07:34;11.70;99.90
37408;DHT22;24866;50.248;8.252;2022-12-24T13:10:21;11.70;99.90
37408;DHT22;24866;50.248;8.252;2022-12-24T13:13:15;11.70;99.90
37408;DHT22;24866;50.248;8.252;2022-12-24T13:16:11;11.80;99.90
37408;DHT22;24866;50.248;8.252;2022-12-24T13:18:57;11.80;99.90
37408;DHT22;24866;50.248;8.252;2022-12-24T13:21:29;11.90;99.90
37408;DHT22;24866;50.248;8.252;2022-12-24T13:24:13;12.00;99.90
37408;DHT22;24866;50.248;8.252;2022-12-24T13:26:59;11.80;99.90
37408;DHT22;24866;50.248;8.252;2022-12-24T13:29:40;11.90;99.90
37408;DHT22;24866;50.248;8.252;2022-12-24T13:35:33;12.00;99.90
37408;DHT22;24866;50.248;8.252;2022-12-24T13:38:40;11.70;99.90
37408;DHT22;24866;50.248;8.252;2022-12-24T13:41:36;11.70;99.90
37408;DHT22;24866;50.248;8.252;2022-12-24T13:44:23;11.60;99.90
37408;DHT22;24866;50.248;8.252;2022-12-24T13:47:16;11.70;99.90
37408;DHT22;24866;50.248;8.252;2022-12-24T13:49:50;11.60;99.90
37408;DHT22;24866;50.248;8.252;2022-12-24T13:52:27;11.70;99.90
37408;DHT22;24866;50.248;8.252;2022-12-24T13:55:15;11.80;99.90
37408;DHT22;24866;50.248;8.252;2022-12-24T13:57:53;11.80;99.90
37408;DHT22;24866;50.248;8.252;2022-12-24T14:00:36;11.70;99.90
37408;DHT22;24866;50.248;8.252;2022-12-24T14:03:28;11.70;99.90
37408;DHT22;24866;50.248;8.252;2022-12-24T14:06:02;11.50;99.90
37408;DHT22;24866;50.248;8.252;2022-12-24T14:08:38;11.40;99.90
37408;DHT22;24866;50.248;8.252;2022-12-24T14:11:12;11.30;99.90
37408;DHT22;24866;50.248;8.252;2022-12-24T14:17:10;11.20;99.90
37408;DHT22;24866;50.248;8.252;2022-12-24T14:19:45;11.20;99.90
37408;DHT22;24866;50.248;8.252;2022-12-24T14:22:22;11.30;99.90
37408;DHT22;24866;50.248;8.252;2022-12-24T14:24:57;11.40;99.90
37408;DHT22;24866;50.248;8.252;2022-12-24T14:27:32;11.50;99.90
37408;DHT22;24866;50.248;8.252;2022-12-24T14:30:05;11.50;99.90
37408;DHT22;24866;50.248;8.252;2022-12-24T14:32:37;11.30;99.90
37408;DHT22;24866;50.248;8.252;2022-12-24T14:35:14;11.30;99.90
37408;DHT22;24866;50.248;8.252;2022-12-24T14:37:46;11.10;99.90
37408;DHT22;24866;50.248;8.252;2022-12-24T14:40:21;11.20;99.90
37408;DHT22;24866;50.248;8.252;2022-12-24T14:42:59;11.10;99.90
37408;DHT22;24866;50.248;8.252;2022-12-24T14:45:34;11.00;99.90
37408;DHT22;24866;50.248;8.252;2022-12-24T14:48:12;10.90;99.90
37408;DHT22;24866;50.248;8.252;2022-12-24T14:51:05;10.90;99.90
37408;DHT22;24866;50.248;8.252;2022-12-24T14:53:50;10.80;99.90
37408;DHT22;24866;50.248;8.252;2022-12-24T14:56:23;10.80;99.90
37408;DHT22;24866;50.248;8.252;2022-12-24T14:58:53;10.80;99.90
37408;DHT22;24866;50.248;8.252;2022-12-24T15:01:26;10.70;99.90
37408;DHT22;24866;50.248;8.252;2022-12-24T15:04:01;10.60;99.90
37408;DHT22;24866;50.248;8.252;2022-12-24T15:06:34;10.60;99.90
37408;DHT22;24866;50.248;8.252;2022-12-24T15:09:13;10.60;99.90
37408;DHT22;24866;50.248;8.252;2022-12-24T15:11:49;10.50;99.90
37408;DHT22;24866;50.248;8.252;2022-12-24T15:14:21;10.50;99.90
37408;DHT22;24866;50.248;8.252;2022-12-24T15:16:55;10.40;99.90
37408;DHT22;24866;50.248;8.252;2022-12-24T15:19:27;10.40;99.90
37408;DHT22;24866;50.248;8.252;2022-12-24T15:22:00;10.30;99.90
37408;DHT22;24866;50.248;8.252;2022-12-24T15:24:32;10.30;99.90
37408;DHT22;24866;50.248;8.252;2022-12-24T15:27:14;10.20;99.90
37408;DHT22;24866;50.248;8.252;2022-12-24T15:29:45;10.10;99.90
37408;DHT22;24866;50.248;8.252;2022-12-24T15:32:17;10.10;99.90
37408;DHT22;24866;50.248;8.252;2022-12-24T15:34:49;10.00;99.90
37408;DHT22;24866;50.248;8.252;2022-12-24T15:37:21;10.00;99.90
37408;DHT22;24866;50.248;8.252;2022-12-24T15:39:53;10.00;99.90
37408;DHT22;24866;50.248;8.252;2022-12-24T15:42:26;10.00;99.90
37408;DHT22;24866;50.248;8.252;2022-12-24T15:44:59;10.00;99.90
37408;DHT22;24866;50.248;8.252;2022-12-24T15:47:33;10.00;99.90
37408;DHT22;24866;50.248;8.252;2022-12-24T15:50:14;9.90;99.90
37408;DHT22;24866;50.248;8.252;2022-12-24T15:52:45;9.80;99.90
37408;DHT22;24866;50.248;8.252;2022-12-24T15:55:27;9.70;99.90
37408;DHT22;24866;50.248;8.252;2022-12-24T15:57:58;9.70;99.90
37408;DHT22;24866;50.248;8.252;2022-12-24T16:00:29;9.70;99.90
37408;DHT22;24866;50.248;8.252;2022-12-24T16:03:11;9.60;99.90
37408;DHT22;24866;50.248;8.252;2022-12-24T16:05:45;9.60;99.90
37408;DHT22;24866;50.248;8.252;2022-12-24T16:08:27;9.70;99.90
37408;DHT22;24866;50.248;8.252;2022-12-24T16:11:10;9.50;99.90
37408;DHT22;24866;50.248;8.252;2022-12-24T16:13:50;9.50;99.90
37408;DHT22;24866;50.248;8.252;2022-12-24T16:16:32;9.50;99.90
37408;DHT22;24866;50.248;8.252;2022-12-24T16:19:03;9.50;99.90
37408;DHT22;24866;50.248;8.252;2022-12-24T16:21:36;9.40;99.90
37408;DHT22;24866;50.248;8.252;2022-12-24T16:24:13;9.40;99.90
37408;DHT22;24866;50.248;8.252;2022-12-24T16:26:44;9.60;99.90
37408;DHT22;24866;50.248;8.252;2022-12-24T16:29:17;9.50;99.90
37408;DHT22;24866;50.248;8.252;2022-12-24T16:31:50;9.40;99.90
37408;DHT22;24866;50.248;8.252;2022-12-24T16:34:23;9.40;99.90